createdAt,value
2018-08-23T00:02:26.936Z,21.30
2018-08-23T00:05:08.572Z,21.30
2018-08-23T00:08:00.330Z,21.30
2018-08-23T00:10:40.795Z,21.30
2018-08-23T00:13:21.587Z,21.20
2018-08-23T00:16:02.128Z,21.20
2018-08-23T00:18:42.595Z,21.20
2018-08-23T00:21:27.631Z,21.20
2018-08-23T00:24:11.781Z,21.20
2018-08-23T00:26:56.748Z,21.20
2018-08-23T00:29:38.827Z,21.10
2018-08-23T00:32:19.231Z,21.10
2018-08-23T00:34:59.872Z,21.10
2018-08-23T00:37:40.383Z,21.10
2018-08-23T00:40:20.651Z,21.00
2018-08-23T00:43:05.452Z,21.00
2018-08-23T00:45:45.971Z,21.00
2018-08-23T00:48:26.464Z,20.90
2018-08-23T00:51:08.718Z,20.90
2018-08-23T00:54:05.733Z,20.90
2018-08-23T00:56:46.164Z,20.80
2018-08-23T00:59:26.696Z,20.80
2018-08-23T01:02:11.512Z,20.80
2018-08-23T01:04:52.052Z,20.80
2018-08-23T01:07:34.675Z,20.80
2018-08-23T01:10:15.196Z,20.80
2018-08-23T01:13:02.179Z,20.70
2018-08-23T01:15:44.204Z,20.70
2018-08-23T01:18:24.751Z,20.70
2018-08-23T01:21:09.970Z,20.70
2018-08-23T01:23:50.387Z,20.70
2018-08-23T01:26:31.020Z,20.70
2018-08-23T01:29:28.637Z,20.70
2018-08-23T01:32:15.257Z,20.70
2018-08-23T01:34:55.644Z,20.70
2018-08-23T01:37:41.296Z,20.80
2018-08-23T01:40:21.756Z,20.80
2018-08-23T01:43:02.253Z,20.80
2018-08-23T01:45:42.796Z,20.90
2018-08-23T01:48:23.275Z,20.90
2018-08-23T01:51:04.575Z,21.00
2018-08-23T01:53:45.068Z,21.00
2018-08-23T01:56:25.507Z,21.10
2018-08-23T01:59:07.663Z,21.10
2018-08-23T02:01:48.076Z,21.20
2018-08-23T02:04:28.524Z,21.20
2018-08-23T02:07:10.456Z,21.10
2018-08-23T02:09:51.075Z,21.10
2018-08-23T02:12:31.492Z,21.10
2018-08-23T02:15:12.081Z,21.10
2018-08-23T02:43:59.376Z,21.10
2018-08-23T02:46:39.961Z,21.10
2018-08-23T02:49:21.375Z,21.10
2018-08-23T02:52:05.371Z,21.10
2018-08-23T02:54:45.672Z,21.10
2018-08-23T02:57:27.115Z,21.00
2018-08-23T03:00:07.600Z,21.00
2018-08-23T03:02:48.145Z,21.00
2018-08-23T03:05:28.760Z,21.00
2018-08-23T03:08:09.240Z,21.00
2018-08-23T03:10:49.757Z,21.10
2018-08-23T03:13:30.681Z,21.10
2018-08-23T03:16:11.012Z,21.10
2018-08-23T03:18:52.607Z,21.10
2018-08-23T03:21:33.056Z,21.10
2018-08-23T03:24:13.556Z,21.10
2018-08-23T03:26:55.576Z,21.00
2018-08-23T03:29:36.800Z,21.00
2018-08-23T03:32:17.328Z,21.00
2018-08-23T03:34:58.379Z,21.00
2018-08-23T03:37:38.923Z,21.00
2018-08-23T03:40:19.307Z,21.00
2018-08-23T03:43:02.049Z,20.90
2018-08-23T03:45:42.319Z,20.90
2018-08-23T03:48:25.339Z,20.80
2018-08-23T03:51:05.660Z,20.80
2018-08-23T03:53:51.661Z,20.80
2018-08-23T03:56:32.202Z,20.70
2018-08-23T03:59:12.605Z,20.70
2018-08-23T04:01:56.198Z,20.70
2018-08-23T04:04:36.544Z,20.70
2018-08-23T04:07:17.568Z,20.70
2018-08-23T04:09:58.024Z,20.70
2018-08-23T04:12:40.331Z,20.70
2018-08-23T04:15:27.041Z,20.70
2018-08-23T04:18:13.414Z,20.80
2018-08-23T04:20:57.858Z,20.80
2018-08-23T04:23:38.272Z,20.80
2018-08-23T04:26:19.276Z,20.80
2018-08-23T04:28:59.544Z,20.80
2018-08-23T04:31:40.158Z,20.90
2018-08-23T04:34:22.035Z,20.90
2018-08-23T04:37:02.570Z,20.90
2018-08-23T04:39:47.873Z,20.90
2018-08-23T04:42:28.467Z,20.90
2018-08-23T04:45:18.287Z,21.00
2018-08-23T04:48:00.515Z,21.00
2018-08-23T04:50:40.940Z,21.10
2018-08-23T04:53:23.029Z,21.10
2018-08-23T04:56:03.441Z,21.10
2018-08-23T04:58:44.032Z,21.20
2018-08-23T05:01:26.165Z,21.20
2018-08-23T05:04:06.684Z,21.20
2018-08-23T05:06:47.149Z,21.30
2018-08-23T05:09:27.679Z,21.30
2018-08-23T05:12:08.135Z,21.30
2018-08-23T05:14:48.687Z,21.30
2018-08-23T05:17:29.113Z,21.40
2018-08-23T05:20:09.764Z,21.40
2018-08-23T05:22:56.225Z,21.50
2018-08-23T05:25:36.672Z,21.50
2018-08-23T05:28:18.581Z,21.60
2018-08-23T05:30:58.959Z,21.60
2018-08-23T05:33:39.500Z,21.60
2018-08-23T05:36:20.028Z,21.70
2018-08-23T05:39:00.751Z,21.70
2018-08-23T05:41:41.066Z,21.70
2018-08-23T05:44:22.941Z,21.70
2018-08-23T05:47:03.271Z,21.70
2018-08-23T05:49:43.846Z,21.80
2018-08-23T05:52:25.483Z,21.80
2018-08-23T05:55:05.744Z,21.90
2018-08-23T05:57:46.237Z,21.90
2018-08-23T06:00:27.369Z,22.00
2018-08-23T06:03:08.358Z,22.10
2018-08-23T06:05:49.475Z,22.10
2018-08-23T06:08:29.868Z,22.20
2018-08-23T06:11:11.350Z,22.30
2018-08-23T06:13:54.704Z,22.40
2018-08-23T06:16:44.464Z,22.40
2018-08-23T06:19:27.167Z,22.50
2018-08-23T06:22:07.602Z,22.60
2018-08-23T06:24:48.106Z,22.70
2018-08-23T06:27:28.670Z,22.70
2018-08-23T06:30:09.160Z,22.80
2018-08-23T06:32:54.780Z,22.90
2018-08-23T06:35:38.047Z,23.00
2018-08-23T06:38:18.660Z,23.10
2018-08-23T06:41:01.528Z,23.10
2018-08-23T06:43:42.080Z,23.20
2018-08-23T06:46:25.575Z,23.30
2018-08-23T06:49:07.122Z,23.40
2018-08-23T06:51:52.882Z,23.50
2018-08-23T06:54:33.228Z,23.60
2018-08-23T06:57:13.824Z,23.70
2018-08-23T06:59:55.714Z,23.80
2018-08-23T07:02:36.352Z,23.90
2018-08-23T07:05:17.183Z,24.20
2018-08-23T07:07:57.603Z,24.70
2018-08-23T07:10:38.112Z,25.10
2018-08-23T07:13:18.559Z,25.50
2018-08-23T07:16:00.860Z,25.80
2018-08-23T07:18:41.436Z,26.20
2018-08-23T07:21:24.531Z,26.50
2018-08-23T07:24:04.958Z,26.80
2018-08-23T07:26:45.486Z,27.10
2018-08-23T07:29:27.236Z,27.30
2018-08-23T07:32:12.964Z,27.60
2018-08-23T07:35:05.208Z,27.80
2018-08-23T07:37:47.841Z,28.10
2018-08-23T07:40:28.308Z,28.30
2018-08-23T07:43:08.782Z,28.50
2018-08-23T07:45:49.263Z,28.70
2018-08-23T07:48:29.771Z,28.90
2018-08-23T07:51:14.395Z,29.10
2018-08-23T07:53:58.184Z,29.30
2018-08-23T07:56:38.669Z,29.40
2018-08-23T07:59:19.104Z,29.60
2018-08-23T08:01:59.432Z,29.60
2018-08-23T08:04:39.816Z,29.80
2018-08-23T08:07:25.311Z,30.00
2018-08-23T08:10:05.731Z,30.10
2018-08-23T08:12:51.744Z,30.20
2018-08-23T08:15:32.095Z,30.20
2018-08-23T08:18:19.641Z,30.20
2018-08-23T08:21:04.312Z,30.30
2018-08-23T08:23:46.153Z,30.30
2018-08-23T08:26:30.107Z,30.50
2018-08-23T08:29:10.480Z,30.60
2018-08-23T08:31:52.744Z,30.70
2018-08-23T08:34:33.096Z,30.90
2018-08-23T08:37:13.659Z,31.00
2018-08-23T08:39:56.161Z,31.20
2018-08-23T08:42:36.569Z,31.30
2018-08-23T08:45:17.159Z,31.30
2018-08-23T08:48:14.339Z,31.40
2018-08-23T08:51:25.828Z,31.40
2018-08-23T08:54:06.212Z,31.50
2018-08-23T08:56:46.912Z,31.50
2018-08-23T08:59:31.463Z,31.50
2018-08-23T09:02:11.940Z,31.70
2018-08-23T09:04:55.485Z,31.50
2018-08-23T09:07:36.937Z,31.50
2018-08-23T09:10:17.743Z,31.50
2018-08-23T09:12:58.040Z,31.60
2018-08-23T09:15:38.452Z,31.40
2018-08-23T09:18:25.993Z,31.40
2018-08-23T09:21:06.519Z,31.30
2018-08-23T09:23:47.168Z,31.00
2018-08-23T09:26:32.864Z,31.10
2018-08-23T09:29:34.394Z,31.10
2018-08-23T09:32:21.993Z,31.00
2018-08-23T09:35:03.823Z,30.90
2018-08-23T09:37:44.385Z,30.90
2018-08-23T09:40:27.600Z,30.70
2018-08-23T09:43:08.146Z,30.20
2018-08-23T09:45:49.439Z,30.40
2018-08-23T09:48:29.832Z,30.50
2018-08-23T09:51:21.719Z,30.60
2018-08-23T09:54:02.097Z,30.80
2018-08-23T09:56:42.795Z,31.00
2018-08-23T09:59:26.896Z,31.00
2018-08-23T10:02:12.704Z,30.90
2018-08-23T10:05:01.080Z,30.90
2018-08-23T10:07:46.862Z,31.10
2018-08-23T10:10:32.632Z,31.20
2018-08-23T10:13:18.227Z,31.30
2018-08-23T10:16:03.857Z,31.20
2018-08-23T10:18:48.643Z,31.30
2018-08-23T10:21:35.420Z,31.30
2018-08-23T10:24:21.985Z,31.20
2018-08-23T10:27:02.632Z,31.30
2018-08-23T10:29:43.111Z,31.30
2018-08-23T10:32:25.968Z,31.40
2018-08-23T10:35:06.488Z,31.40
2018-08-23T10:37:47.021Z,31.50
2018-08-23T10:40:27.586Z,31.50
2018-08-23T10:43:08.216Z,31.60
2018-08-23T10:45:48.747Z,31.60
2018-08-23T10:48:29.095Z,31.70
2018-08-23T10:51:09.755Z,31.80
2018-08-23T10:53:51.783Z,31.70
2018-08-23T10:56:32.288Z,31.60
2018-08-23T10:59:12.670Z,31.70
2018-08-23T11:01:55.961Z,31.80
2018-08-23T11:04:36.277Z,31.80
2018-08-23T11:07:16.870Z,31.90
2018-08-23T11:10:02.688Z,31.80
2018-08-23T11:12:48.536Z,31.80
2018-08-23T11:15:29.029Z,31.80
2018-08-23T11:18:14.732Z,31.90
2018-08-23T11:20:56.602Z,31.90
2018-08-23T11:23:37.071Z,31.90
2018-08-23T11:26:21.657Z,31.80
2018-08-23T11:29:02.083Z,31.50
2018-08-23T11:31:42.717Z,31.60
2018-08-23T11:34:26.110Z,31.80
2018-08-23T11:37:06.705Z,31.60
2018-08-23T11:39:47.244Z,31.30
2018-08-23T11:42:27.596Z,31.20
2018-08-23T11:45:08.255Z,31.00
2018-08-23T11:47:48.734Z,31.10
2018-08-23T11:50:29.315Z,31.10
2018-08-23T11:53:10.061Z,31.20
2018-08-23T11:55:51.677Z,31.40
2018-08-23T11:58:32.282Z,31.30
2018-08-23T12:01:14.053Z,31.20
2018-08-23T12:03:55.928Z,31.30
2018-08-23T12:06:36.510Z,31.50
2018-08-23T12:09:16.981Z,31.50
2018-08-23T12:11:57.396Z,31.50
2018-08-23T12:14:37.868Z,31.10
2018-08-23T12:17:18.476Z,30.90
2018-08-23T12:19:58.922Z,30.70
2018-08-23T12:22:43.292Z,30.80
2018-08-23T12:25:25.560Z,30.70
2018-08-23T12:28:11.329Z,30.60
2018-08-23T12:30:54.548Z,30.50
2018-08-23T12:33:35.045Z,30.50
2018-08-23T12:36:19.700Z,30.40
2018-08-23T12:39:05.750Z,30.40
2018-08-23T12:41:51.752Z,30.40
2018-08-23T12:44:32.229Z,30.60
2018-08-23T12:47:13.513Z,30.60
2018-08-23T12:49:59.472Z,30.50
2018-08-23T12:52:40.151Z,30.40
2018-08-23T12:55:21.207Z,30.20
2018-08-23T12:58:02.151Z,30.40
2018-08-23T13:00:43.117Z,30.50
2018-08-23T13:03:25.328Z,30.60
2018-08-23T13:06:06.282Z,30.60
2018-08-23T13:08:46.720Z,30.70
2018-08-23T13:11:27.145Z,30.70
2018-08-23T13:14:07.946Z,30.80
2018-08-23T13:16:48.784Z,30.70
2018-08-23T13:19:29.559Z,30.70
2018-08-23T13:22:10.032Z,30.70
2018-08-23T13:24:55.961Z,30.70
2018-08-23T13:27:36.550Z,30.60
2018-08-23T13:30:17.073Z,30.70
2018-08-23T13:32:57.685Z,30.80
2018-08-23T13:35:37.976Z,30.90
2018-08-23T13:38:19.013Z,30.90
2018-08-23T13:40:59.430Z,30.90
2018-08-23T13:43:40.036Z,31.00
2018-08-23T13:46:21.856Z,31.00
2018-08-23T13:49:02.477Z,31.00
2018-08-23T13:51:43.018Z,31.10
2018-08-23T13:54:25.491Z,31.10
2018-08-23T13:57:06.019Z,31.10
2018-08-23T13:59:46.641Z,31.20
2018-08-23T14:02:27.182Z,31.20
2018-08-23T14:05:08.154Z,31.30
2018-08-23T14:07:48.664Z,31.30
2018-08-23T14:10:29.123Z,31.30
2018-08-23T14:13:09.688Z,31.30
2018-08-23T14:15:55.347Z,31.30
2018-08-23T14:18:36.194Z,31.30
2018-08-23T14:21:16.568Z,31.80
2018-08-23T14:23:57.457Z,31.80
2018-08-23T14:26:38.004Z,31.80
2018-08-23T14:29:18.542Z,31.60
2018-08-23T14:31:59.044Z,31.40
2018-08-23T14:34:39.593Z,31.30
2018-08-23T14:37:19.932Z,31.10
2018-08-23T14:40:00.681Z,31.10
2018-08-23T14:42:41.153Z,31.10
2018-08-23T14:45:28.450Z,31.20
2018-08-23T14:48:16.677Z,31.10
2018-08-23T14:50:57.735Z,31.00
2018-08-23T14:53:38.318Z,31.00
2018-08-23T14:56:24.656Z,30.90
2018-08-23T14:59:05.317Z,30.90
2018-08-23T15:01:45.693Z,30.80
2018-08-23T15:04:27.848Z,30.70
2018-08-23T15:07:08.444Z,30.70
2018-08-23T15:09:48.919Z,30.60
2018-08-23T15:12:29.627Z,30.60
2018-08-23T15:15:10.137Z,30.60
2018-08-23T15:17:51.980Z,30.50
2018-08-23T15:20:32.448Z,30.50
2018-08-23T15:23:12.995Z,30.50
2018-08-23T15:25:56.487Z,30.50
2018-08-23T15:28:37.087Z,30.40
2018-08-23T15:31:17.864Z,30.40
2018-08-23T15:33:58.523Z,30.40
2018-08-23T15:36:39.881Z,30.30
2018-08-23T15:39:22.929Z,30.30
2018-08-23T15:42:03.546Z,30.20
2018-08-23T15:44:44.111Z,30.20
2018-08-23T15:47:27.226Z,30.10
2018-08-23T15:50:07.688Z,30.10
2018-08-23T15:52:48.833Z,30.10
2018-08-23T15:55:30.060Z,30.10
2018-08-23T15:58:10.272Z,30.00
2018-08-23T16:00:50.849Z,30.00
2018-08-23T16:03:31.884Z,29.90
2018-08-23T16:06:12.372Z,29.80
2018-08-23T16:08:57.812Z,29.80
2018-08-23T16:11:38.695Z,29.70
2018-08-23T16:14:19.272Z,29.70
2018-08-23T16:17:05.016Z,29.60
2018-08-23T16:21:54.127Z,29.60
2018-08-23T16:24:34.632Z,29.40
2018-08-23T16:27:15.947Z,29.40
2018-08-23T16:29:58.017Z,29.30
2018-08-23T16:32:38.576Z,29.30
2018-08-23T16:35:19.278Z,29.30
2018-08-23T16:37:59.812Z,29.20
2018-08-23T16:40:40.415Z,29.20
2018-08-23T16:43:20.835Z,29.10
2018-08-23T16:46:01.612Z,29.10
2018-08-23T16:48:42.259Z,29.00
2018-08-23T16:51:25.576Z,29.00
2018-08-23T16:54:06.188Z,29.00
2018-08-23T16:56:46.771Z,28.90
2018-08-23T16:59:28.312Z,28.90
2018-08-23T17:02:08.680Z,28.80
2018-08-23T17:04:49.284Z,28.80
2018-08-23T17:07:41.005Z,28.70
2018-08-23T17:10:22.744Z,28.70
2018-08-23T17:13:03.337Z,28.60
2018-08-23T17:15:48.955Z,28.60
2018-08-23T17:18:29.452Z,28.50
2018-08-23T17:21:09.840Z,28.50
2018-08-23T17:23:50.157Z,28.40
2018-08-23T17:26:30.651Z,28.30
2018-08-23T17:29:12.075Z,28.30
2018-08-23T17:31:53.700Z,28.20
2018-08-23T17:34:34.011Z,28.10
2018-08-23T17:37:14.624Z,28.10
2018-08-23T17:39:57.537Z,28.00
2018-08-23T17:42:44.223Z,27.90
2018-08-23T17:45:26.560Z,27.90
2018-08-23T17:48:07.159Z,27.80
2018-08-23T17:50:47.488Z,27.80
2018-08-23T17:53:28.507Z,27.70
2018-08-23T17:56:09.713Z,27.60
2018-08-23T17:58:50.267Z,27.50
2018-08-23T18:01:30.880Z,27.30
2018-08-23T18:04:11.395Z,27.20
2018-08-23T18:06:53.056Z,27.10
2018-08-23T18:09:33.556Z,27.10
2018-08-23T18:12:14.198Z,27.00
2018-08-23T18:14:57.532Z,27.00
2018-08-23T18:17:39.135Z,26.90
2018-08-23T18:20:19.590Z,26.90
2018-08-23T18:23:00.085Z,26.80
2018-08-23T18:25:40.978Z,26.70
2018-08-23T18:28:21.520Z,26.60
2018-08-23T18:31:02.095Z,26.40
2018-08-23T18:33:42.399Z,26.30
2018-08-23T18:36:23.480Z,26.20
2018-08-23T18:39:04.964Z,26.20
2018-08-23T18:41:45.495Z,26.10
2018-08-23T18:44:27.365Z,26.00
2018-08-23T18:47:08.025Z,26.00
2018-08-23T18:49:49.012Z,25.90
2018-08-23T18:52:29.608Z,25.80
2018-08-23T18:55:10.085Z,25.70
2018-08-23T18:57:50.700Z,25.60
2018-08-23T19:00:31.216Z,25.60
2018-08-23T19:03:11.768Z,25.50
2018-08-23T19:05:53.769Z,25.50
2018-08-23T19:08:34.292Z,25.50
2018-08-23T19:11:14.659Z,25.40
2018-08-23T19:13:57.516Z,25.40
2018-08-23T19:16:43.321Z,25.40
2018-08-23T19:19:26.762Z,25.30
2018-08-23T19:22:08.456Z,25.30
2018-08-23T19:25:02.181Z,25.30
2018-08-23T19:27:42.675Z,25.20
2018-08-23T19:30:24.751Z,25.20
2018-08-23T19:33:06.567Z,25.10
2018-08-23T19:35:47.128Z,25.10
2018-08-23T19:38:29.081Z,25.10
2018-08-23T19:41:09.600Z,25.10
2018-08-23T19:43:50.193Z,25.00
2018-08-23T19:46:36.055Z,25.00
2018-08-23T19:49:21.622Z,25.00
2018-08-23T19:52:02.068Z,25.00
2018-08-23T19:54:42.851Z,24.90
2018-08-23T19:57:25.103Z,24.90
2018-08-23T20:00:07.190Z,24.90
2018-08-23T20:02:47.552Z,24.90
2018-08-23T20:05:29.922Z,24.90
2018-08-23T20:08:10.727Z,24.80
2018-08-23T20:10:51.271Z,24.80
2018-08-23T20:13:31.912Z,24.80
2018-08-23T20:16:12.521Z,25.00
2018-08-23T20:18:53.349Z,25.30
2018-08-23T20:21:33.925Z,25.50
2018-08-23T20:24:15.129Z,25.70
2018-08-23T20:26:58.508Z,25.80
2018-08-23T20:29:39.516Z,26.00
2018-08-23T20:32:20.256Z,26.10
2018-08-23T20:35:01.572Z,26.20
2018-08-23T20:37:43.004Z,26.30
2018-08-23T20:40:23.712Z,26.30
2018-08-23T20:43:04.232Z,26.40
2018-08-23T20:45:44.893Z,26.50
2018-08-23T20:48:26.452Z,26.60
2018-08-23T20:51:07.204Z,26.60
2018-08-23T20:53:47.853Z,26.70
2018-08-23T20:56:31.391Z,26.70
2018-08-23T20:59:11.708Z,26.80
2018-08-23T21:01:52.143Z,26.80
2018-08-23T21:04:33.376Z,26.80
2018-08-23T21:07:14.047Z,26.90
2018-08-23T21:09:55.716Z,26.90
2018-08-23T21:12:36.219Z,26.90
2018-08-23T21:15:16.635Z,26.90
2018-08-23T21:17:59.586Z,26.80
2018-08-23T21:20:40.922Z,26.70
2018-08-23T21:23:21.376Z,26.40
2018-08-23T21:26:01.932Z,26.20
2018-08-23T21:28:42.328Z,26.10
2018-08-23T21:31:22.776Z,25.90
2018-08-23T21:34:03.495Z,25.80
2018-08-23T21:36:44.211Z,25.70
2018-08-23T21:39:25.743Z,25.50
2018-08-23T21:42:06.267Z,25.40
2018-08-23T21:44:47.846Z,25.20
2018-08-23T21:47:29.627Z,25.10
2018-08-23T21:50:10.216Z,25.10
2018-08-23T21:52:50.850Z,25.10
2018-08-23T21:55:38.019Z,25.10
2018-08-23T21:58:18.355Z,25.00
2018-08-23T22:01:07.124Z,25.00
2018-08-23T22:03:47.747Z,24.90
2018-08-23T22:06:30.372Z,24.70
2018-08-23T22:09:10.767Z,24.60
2018-08-23T22:11:51.331Z,24.50
2018-08-23T22:14:31.880Z,24.40
2018-08-23T22:17:12.479Z,24.30
2018-08-23T22:19:53.664Z,24.30
2018-08-23T22:22:34.155Z,24.40
2018-08-23T22:25:15.212Z,24.70
2018-08-23T22:27:57.445Z,24.90
2018-08-23T22:30:38.885Z,25.10
2018-08-23T22:33:19.407Z,25.20
2018-08-23T22:36:01.343Z,25.40
2018-08-23T22:38:41.868Z,25.50
2018-08-23T22:41:22.356Z,25.60
2018-08-23T22:44:02.943Z,25.60
2018-08-23T22:46:43.816Z,25.70
2018-08-23T22:49:24.227Z,25.70
2018-08-23T22:52:04.684Z,25.80
2018-08-23T22:54:45.235Z,25.80
2018-08-23T22:57:29.094Z,25.90
2018-08-23T23:00:09.623Z,26.00
2018-08-23T23:02:50.166Z,26.00
2018-08-23T23:05:31.720Z,26.10
2018-08-23T23:08:12.065Z,26.10
2018-08-23T23:10:52.744Z,26.10
2018-08-23T23:13:33.223Z,26.10
2018-08-23T23:16:13.814Z,26.10
2018-08-23T23:18:54.267Z,26.20
2018-08-23T23:21:34.723Z,26.20
2018-08-23T23:24:20.436Z,26.20
2018-08-23T23:27:01.916Z,26.20
2018-08-23T23:29:42.421Z,26.20
2018-08-23T23:32:22.981Z,26.20
2018-08-23T23:35:03.480Z,26.10
2018-08-23T23:37:44.035Z,26.10
2018-08-23T23:40:24.571Z,26.10
2018-08-23T23:43:05.296Z,26.10
2018-08-23T23:45:45.622Z,26.10
2018-08-23T23:48:29.171Z,26.10
2018-08-23T23:51:09.604Z,26.10
2018-08-23T23:53:50.157Z,26.10
2018-08-23T23:56:32.112Z,26.10
2018-08-23T23:59:12.658Z,26.00
